createdAt,value
2023-03-16T00:00:14.035Z,6.82
2023-03-16T00:02:42.283Z,6.86
2023-03-16T00:05:11.264Z,6.89
2023-03-16T00:07:39.512Z,6.96
2023-03-16T00:10:08.323Z,6.94
2023-03-16T00:12:36.890Z,6.75
2023-03-16T00:15:06.593Z,6.67
2023-03-16T00:17:35.119Z,6.81
2023-03-16T00:20:09.896Z,6.90
2023-03-16T00:22:38.709Z,6.99
2023-03-16T00:25:07.475Z,7.13
2023-03-16T00:27:35.818Z,7.19
2023-03-16T00:30:05.071Z,7.19
2023-03-16T00:32:36.737Z,7.17
2023-03-16T00:35:50.748Z,7.22
2023-03-16T00:38:22.844Z,7.28
2023-03-16T00:40:51.439Z,7.34
2023-03-16T00:43:19.466Z,7.44
2023-03-16T00:45:47.499Z,7.57
2023-03-16T00:48:16.605Z,7.59
2023-03-16T00:50:45.615Z,7.63
2023-03-16T00:53:13.647Z,7.56
2023-03-16T00:55:41.672Z,7.38
2023-03-16T00:58:15.093Z,7.25
2023-03-16T01:00:43.487Z,7.27
2023-03-16T01:06:00.129Z,7.29
2023-03-16T01:08:28.159Z,7.25
2023-03-16T01:10:56.487Z,7.12
2023-03-16T01:13:26.229Z,7.05
2023-03-16T01:15:54.239Z,6.94
2023-03-16T01:18:22.522Z,6.92
2023-03-16T01:20:51.185Z,6.97
2023-03-16T01:23:22.205Z,6.85
2023-03-16T01:25:54.252Z,6.78
2023-03-16T01:28:25.729Z,6.74
2023-03-16T01:30:57.623Z,6.67
2023-03-16T01:38:16.617Z,6.60
2023-03-16T01:40:45.059Z,6.78
2023-03-16T01:43:14.053Z,6.83
2023-03-16T01:46:05.985Z,6.84
2023-03-16T01:48:58.730Z,6.77
2023-03-16T01:51:44.448Z,6.65
2023-03-16T01:54:22.292Z,6.57
2023-03-16T01:57:06.371Z,6.55
2023-03-16T01:59:48.091Z,6.58
2023-03-16T02:02:19.134Z,6.74
2023-03-16T02:05:02.231Z,6.88
2023-03-16T02:07:36.394Z,7.02
2023-03-16T02:10:05.420Z,6.91
2023-03-16T02:12:35.240Z,6.93
2023-03-16T02:15:05.051Z,6.92
2023-03-16T02:17:34.338Z,6.81
2023-03-16T02:20:30.917Z,6.90
2023-03-16T02:22:58.967Z,7.01
2023-03-16T02:25:42.769Z,7.11
2023-03-16T02:28:36.105Z,7.08
2023-03-16T02:31:05.052Z,6.98
2023-03-16T02:33:35.032Z,6.96
2023-03-16T02:36:03.826Z,6.97
2023-03-16T02:38:31.968Z,7.06
2023-03-16T02:41:07.053Z,7.24
2023-03-16T02:43:43.080Z,7.30
2023-03-16T02:46:23.505Z,7.46
2023-03-16T02:49:00.431Z,7.62
2023-03-16T02:51:29.362Z,7.66
2023-03-16T02:53:57.636Z,7.45
2023-03-16T02:56:27.692Z,7.26
2023-03-16T02:58:57.486Z,7.21
2023-03-16T03:01:34.974Z,7.11
2023-03-16T03:04:04.060Z,7.04
2023-03-16T03:06:33.489Z,6.91
2023-03-16T03:09:03.967Z,6.76
2023-03-16T03:11:32.206Z,6.67
2023-03-16T03:14:01.247Z,6.65
2023-03-16T03:16:29.551Z,6.61
2023-03-16T03:18:58.789Z,6.59
2023-03-16T03:21:30.532Z,6.56
2023-03-16T03:23:58.656Z,6.65
2023-03-16T03:26:27.152Z,6.77
2023-03-16T03:28:55.939Z,6.75
2023-03-16T03:31:24.116Z,6.80
2023-03-16T03:33:53.767Z,6.87
2023-03-16T03:36:22.874Z,6.89
2023-03-16T03:38:51.429Z,7.00
2023-03-16T03:41:22.657Z,7.10
2023-03-16T03:43:51.016Z,7.18
2023-03-16T03:46:19.357Z,7.18
2023-03-16T03:48:48.570Z,7.18
2023-03-16T03:51:16.766Z,7.16
2023-03-16T03:53:56.864Z,7.17
2023-03-16T03:56:39.755Z,7.18
2023-03-16T03:59:12.246Z,7.22
2023-03-16T04:01:59.679Z,7.29
2023-03-16T04:04:35.546Z,7.34
2023-03-16T04:07:04.125Z,7.41
2023-03-16T04:09:36.535Z,7.48
2023-03-16T04:12:06.068Z,7.53
2023-03-16T04:14:35.736Z,7.51
2023-03-16T04:17:06.246Z,7.42
2023-03-16T04:19:35.542Z,7.38
2023-03-16T04:22:04.837Z,7.37
2023-03-16T04:24:34.570Z,7.41
2023-03-16T04:27:03.113Z,7.44
2023-03-16T04:29:32.042Z,7.48
2023-03-16T04:32:00.714Z,7.52
2023-03-16T04:34:29.728Z,7.57
2023-03-16T04:36:59.619Z,7.61
2023-03-16T04:39:28.086Z,7.62
2023-03-16T04:41:56.316Z,7.59
2023-03-16T04:44:26.084Z,7.45
2023-03-16T04:46:54.681Z,7.20
2023-03-16T04:49:24.961Z,7.16
2023-03-16T04:51:53.095Z,7.25
2023-03-16T04:54:21.515Z,7.35
2023-03-16T04:56:49.869Z,7.44
2023-03-16T04:59:27.774Z,7.37
2023-03-16T05:02:04.128Z,7.21
2023-03-16T05:04:34.612Z,7.04
2023-03-16T05:07:08.463Z,6.84
2023-03-16T05:09:38.560Z,6.72
2023-03-16T05:12:08.456Z,6.65
2023-03-16T05:14:41.578Z,6.59
2023-03-16T05:17:33.061Z,6.58
2023-03-16T05:20:01.123Z,6.66
2023-03-16T05:22:29.977Z,6.59
2023-03-16T05:25:08.756Z,6.53
2023-03-16T05:27:45.909Z,6.49
2023-03-16T05:30:16.497Z,6.42
2023-03-16T05:32:45.928Z,6.37
2023-03-16T05:35:24.265Z,6.40
2023-03-16T05:37:53.587Z,6.49
2023-03-16T05:40:23.326Z,6.46
2023-03-16T05:43:02.208Z,6.35
2023-03-16T05:45:34.339Z,6.34
2023-03-16T05:48:09.047Z,6.25
2023-03-16T05:50:43.802Z,6.17
2023-03-16T05:53:14.073Z,6.24
2023-03-16T05:55:42.477Z,6.24
2023-03-16T05:58:12.333Z,6.24
2023-03-16T06:00:42.046Z,6.12
2023-03-16T06:03:19.331Z,6.04
2023-03-16T06:05:47.432Z,6.07
2023-03-16T06:08:17.562Z,6.20
2023-03-16T06:10:51.458Z,6.28
2023-03-16T06:13:23.153Z,6.32
2023-03-16T06:15:51.325Z,6.36
2023-03-16T06:18:21.454Z,6.37
2023-03-16T06:20:50.192Z,6.33
2023-03-16T06:23:20.319Z,6.26
2023-03-16T06:25:49.339Z,6.17
2023-03-16T06:28:18.011Z,6.05
2023-03-16T06:30:47.451Z,5.94
2023-03-16T06:33:15.500Z,5.94
2023-03-16T06:35:43.724Z,6.01
2023-03-16T06:38:17.822Z,6.10
2023-03-16T06:40:55.747Z,6.14
2023-03-16T06:43:24.423Z,6.14
2023-03-16T06:45:53.429Z,6.16
2023-03-16T06:48:21.840Z,6.22
2023-03-16T06:50:50.461Z,6.31
2023-03-16T06:53:22.692Z,6.34
2023-03-16T06:55:52.882Z,6.42
2023-03-16T06:58:21.894Z,6.54
2023-03-16T07:00:55.951Z,6.62
2023-03-16T07:03:25.070Z,6.63
2023-03-16T07:05:57.009Z,6.71
2023-03-16T07:08:25.884Z,6.80
2023-03-16T07:10:54.645Z,6.88
2023-03-16T07:13:22.658Z,6.93
2023-03-16T07:15:52.227Z,6.97
2023-03-16T07:18:21.056Z,6.97
2023-03-16T07:20:49.512Z,6.99
2023-03-16T07:23:17.602Z,7.04
2023-03-16T07:25:46.072Z,7.04
2023-03-16T07:28:19.177Z,7.03
2023-03-16T07:31:02.596Z,7.06
2023-03-16T07:33:35.543Z,7.10
2023-03-16T07:36:10.697Z,7.10
2023-03-16T07:38:42.612Z,7.11
2023-03-16T07:41:14.083Z,7.05
2023-03-16T07:43:44.554Z,7.08
2023-03-16T07:46:13.913Z,7.01
2023-03-16T07:48:43.836Z,6.84
2023-03-16T07:51:13.158Z,6.82
2023-03-16T07:53:41.850Z,6.90
2023-03-16T07:56:15.831Z,6.95
2023-03-16T07:58:45.725Z,6.92
2023-03-16T08:01:13.957Z,6.92
2023-03-16T08:03:42.857Z,6.98
2023-03-16T08:06:12.062Z,7.05
2023-03-16T08:08:40.883Z,7.09
2023-03-16T08:11:09.515Z,7.09
2023-03-16T08:13:54.477Z,7.11
2023-03-16T08:16:23.794Z,7.15
2023-03-16T08:18:52.525Z,7.12
2023-03-16T08:21:26.290Z,7.12
2023-03-16T08:23:55.620Z,7.12
2023-03-16T08:26:24.339Z,7.11
2023-03-16T08:28:56.296Z,7.06
2023-03-16T08:31:25.606Z,6.96
2023-03-16T08:34:18.023Z,6.92
2023-03-16T08:36:46.500Z,6.91
2023-03-16T08:39:15.807Z,6.93
2023-03-16T08:41:48.367Z,7.04
2023-03-16T08:44:29.943Z,7.12
2023-03-16T08:46:58.271Z,7.09
2023-03-16T08:49:27.463Z,7.03
2023-03-16T08:52:05.478Z,7.07
2023-03-16T08:54:34.517Z,7.15
2023-03-16T08:57:05.696Z,7.19
2023-03-16T08:59:33.798Z,7.27
2023-03-16T09:02:06.377Z,7.33
2023-03-16T09:04:35.242Z,7.40
2023-03-16T09:07:08.941Z,7.44
2023-03-16T09:09:39.893Z,7.38
2023-03-16T09:12:08.641Z,7.29
2023-03-16T09:14:38.532Z,7.30
2023-03-16T09:17:11.911Z,7.35
2023-03-16T09:19:51.241Z,7.33
2023-03-16T09:22:20.624Z,7.36
2023-03-16T09:24:49.723Z,7.43
2023-03-16T09:27:18.173Z,7.44
2023-03-16T09:29:49.591Z,7.49
2023-03-16T09:32:17.932Z,7.55
2023-03-16T09:34:46.166Z,7.47
2023-03-16T09:37:31.572Z,7.34
2023-03-16T09:40:19.294Z,7.37
2023-03-16T09:43:11.148Z,7.49
2023-03-16T09:45:46.800Z,7.58
2023-03-16T09:48:20.957Z,7.61
2023-03-16T09:50:53.348Z,7.65
2023-03-16T09:53:30.889Z,7.62
2023-03-16T09:56:08.508Z,7.53
2023-03-16T09:58:36.795Z,7.56
2023-03-16T10:01:21.056Z,7.63
2023-03-16T10:04:25.398Z,7.65
2023-03-16T10:07:16.458Z,7.60
2023-03-16T10:10:17.587Z,7.65
2023-03-16T10:12:50.456Z,7.54
2023-03-16T10:15:21.319Z,7.50
2023-03-16T10:18:03.199Z,7.55
2023-03-16T10:20:35.019Z,7.58
2023-03-16T10:23:14.841Z,7.59
2023-03-16T10:25:49.823Z,7.60
2023-03-16T10:28:23.790Z,7.58
2023-03-16T10:30:53.705Z,7.58
2023-03-16T10:33:27.786Z,7.57
2023-03-16T10:35:58.542Z,7.55
2023-03-16T10:38:40.014Z,7.47
2023-03-16T10:41:21.504Z,7.39
2023-03-16T10:44:06.334Z,7.47
2023-03-16T10:46:54.190Z,7.53
2023-03-16T10:49:41.752Z,7.49
2023-03-16T10:52:39.979Z,7.41
2023-03-16T10:55:11.071Z,7.43
2023-03-16T10:57:42.394Z,7.26
2023-03-16T11:00:16.951Z,7.25
2023-03-16T11:02:45.853Z,7.35
2023-03-16T11:05:28.617Z,7.48
2023-03-16T11:08:12.195Z,7.62
2023-03-16T11:10:56.127Z,7.65
2023-03-16T11:13:38.752Z,7.58
2023-03-16T11:16:21.554Z,7.57
2023-03-16T11:19:26.183Z,7.65
2023-03-16T11:21:57.742Z,7.74
2023-03-16T11:24:42.921Z,7.81
2023-03-16T11:27:25.187Z,7.84
2023-03-16T11:30:22.457Z,7.88
2023-03-16T11:32:54.052Z,7.97
2023-03-16T11:35:38.421Z,7.91
2023-03-16T11:38:16.909Z,7.96
2023-03-16T11:41:10.666Z,7.97
2023-03-16T11:43:50.275Z,7.92
2023-03-16T11:46:28.633Z,7.94
2023-03-16T11:49:12.148Z,7.92
2023-03-16T11:51:44.922Z,7.82
2023-03-16T11:54:20.062Z,7.71
2023-03-16T11:56:51.214Z,7.70
2023-03-16T11:59:46.261Z,7.71
2023-03-16T12:02:45.322Z,7.72
2023-03-16T12:05:23.387Z,7.77
2023-03-16T12:08:32.936Z,7.81
2023-03-16T12:11:31.255Z,7.84
2023-03-16T12:14:15.660Z,7.71
2023-03-16T12:16:49.573Z,7.59
2023-03-16T12:19:24.949Z,7.45
2023-03-16T12:22:07.848Z,7.30
2023-03-16T12:24:43.780Z,7.18
2023-03-16T12:27:16.238Z,7.25
2023-03-16T12:30:03.924Z,7.36
2023-03-16T12:32:39.489Z,7.49
2023-03-16T12:35:34.142Z,7.59
2023-03-16T12:38:28.798Z,7.69
2023-03-16T12:41:18.010Z,7.71
2023-03-16T12:43:51.616Z,7.70
2023-03-16T12:46:53.584Z,7.74
2023-03-16T12:49:23.923Z,7.81
2023-03-16T12:52:03.011Z,7.77
2023-03-16T12:54:31.348Z,7.79
2023-03-16T12:57:06.946Z,7.75
2023-03-16T12:59:43.720Z,7.75
2023-03-16T13:02:19.584Z,7.81
2023-03-16T13:04:51.839Z,7.76
2023-03-16T13:07:22.837Z,7.64
2023-03-16T13:10:00.681Z,7.55
2023-03-16T13:12:32.984Z,7.51
2023-03-16T13:15:02.208Z,7.47
2023-03-16T13:17:32.285Z,7.46
2023-03-16T13:20:00.943Z,7.47
2023-03-16T13:22:32.344Z,7.44
2023-03-16T13:25:18.826Z,7.32
2023-03-16T13:27:47.553Z,7.23
2023-03-16T13:30:21.572Z,7.19
2023-03-16T13:33:17.659Z,7.07
2023-03-16T13:35:46.256Z,7.05
2023-03-16T13:38:16.383Z,7.05
2023-03-16T13:40:49.141Z,7.10
2023-03-16T13:43:18.851Z,7.21
2023-03-16T13:45:47.296Z,7.30
2023-03-16T13:48:16.378Z,7.35
2023-03-16T13:50:44.754Z,7.38
2023-03-16T13:55:23.147Z,7.40
2023-03-16T13:57:49.949Z,7.23
2023-03-16T14:00:27.912Z,7.20
2023-03-16T14:02:56.590Z,7.21
2023-03-16T14:05:29.882Z,7.21
2023-03-16T14:07:59.950Z,7.22
2023-03-16T14:10:32.602Z,7.29
2023-03-16T14:13:08.579Z,7.27
2023-03-16T14:15:36.814Z,7.24
2023-03-16T14:18:15.774Z,7.23
2023-03-16T14:20:46.992Z,7.18
2023-03-16T14:23:29.988Z,7.05
2023-03-16T14:26:00.089Z,6.90
2023-03-16T14:28:32.118Z,6.90
2023-03-16T14:31:20.282Z,6.87
2023-03-16T14:33:48.391Z,6.78
2023-03-16T14:36:17.023Z,6.72
2023-03-16T14:38:48.137Z,6.60
2023-03-16T14:41:21.052Z,6.63
2023-03-16T14:43:58.509Z,6.72
2023-03-16T14:46:28.748Z,6.77
2023-03-16T14:49:08.209Z,6.75
2023-03-16T14:51:39.523Z,6.68
2023-03-16T14:54:11.712Z,6.58
2023-03-16T14:56:38.458Z,6.56
2023-03-16T14:59:06.303Z,6.61
2023-03-16T15:01:33.348Z,6.66
2023-03-16T15:04:08.823Z,6.63
2023-03-16T15:06:35.924Z,6.58
2023-03-16T15:09:02.756Z,6.61
2023-03-16T15:11:33.572Z,6.62
2023-03-16T15:14:14.332Z,6.63
2023-03-16T15:16:43.847Z,6.61
2023-03-16T15:19:10.465Z,6.45
2023-03-16T15:21:37.401Z,6.41
2023-03-16T15:24:10.515Z,6.44
2023-03-16T15:26:37.310Z,6.35
2023-03-16T15:29:05.792Z,6.30
2023-03-16T15:31:33.303Z,6.32
2023-03-16T15:34:00.342Z,6.27
2023-03-16T15:36:26.878Z,6.27
2023-03-16T15:38:54.339Z,6.25
2023-03-16T15:41:21.379Z,6.33
2023-03-16T15:43:52.330Z,6.33
2023-03-16T15:46:20.225Z,6.30
2023-03-16T15:48:47.116Z,6.38
2023-03-16T15:51:27.113Z,6.34
2023-03-16T15:53:56.367Z,6.29
2023-03-16T15:56:29.080Z,6.29
2023-03-16T15:58:59.913Z,6.23
2023-03-16T16:01:30.612Z,6.04
2023-03-16T16:03:58.432Z,5.98
2023-03-16T16:06:26.801Z,6.01
2023-03-16T16:08:53.727Z,6.05
2023-03-16T16:11:25.684Z,6.06
2023-03-16T16:13:56.963Z,6.12
2023-03-16T16:16:25.734Z,6.12
2023-03-16T16:18:52.429Z,6.05
2023-03-16T16:21:26.177Z,6.01
2023-03-16T16:23:53.341Z,5.95
2023-03-16T16:26:41.613Z,5.91
2023-03-16T16:29:17.200Z,5.94
2023-03-16T16:31:44.019Z,5.99
2023-03-16T16:34:12.331Z,6.06
2023-03-16T16:36:39.145Z,6.17
2023-03-16T16:39:07.719Z,6.21
2023-03-16T16:41:38.335Z,6.13
2023-03-16T16:44:07.752Z,6.11
2023-03-16T16:46:41.849Z,6.10
2023-03-16T16:49:18.856Z,6.10
2023-03-16T16:51:45.628Z,6.04
2023-03-16T16:54:18.871Z,5.86
2023-03-16T16:56:46.127Z,5.76
2023-03-16T16:59:26.595Z,5.63
2023-03-16T17:01:53.478Z,5.50
2023-03-16T17:04:24.982Z,5.55
2023-03-16T17:06:54.848Z,5.58
2023-03-16T17:09:26.527Z,5.61
2023-03-16T17:11:55.576Z,5.66
2023-03-16T17:14:23.440Z,5.74
2023-03-16T17:16:52.783Z,5.83
2023-03-16T17:19:27.353Z,5.92
2023-03-16T17:21:55.440Z,5.92
2023-03-16T17:24:29.128Z,5.91
2023-03-16T17:26:58.161Z,5.84
2023-03-16T17:29:30.869Z,5.77
2023-03-16T17:32:04.151Z,5.77
2023-03-16T17:34:32.012Z,5.79
2023-03-16T17:37:06.582Z,5.81
2023-03-16T17:39:34.814Z,5.80
2023-03-16T17:42:02.713Z,5.75
2023-03-16T17:44:35.615Z,5.71
2023-03-16T17:47:02.488Z,5.63
2023-03-16T17:49:31.028Z,5.53
2023-03-16T17:52:00.576Z,5.51
2023-03-16T17:54:27.742Z,5.52
2023-03-16T17:56:54.511Z,5.46
2023-03-16T17:59:21.498Z,5.42
2023-03-16T18:01:50.936Z,5.30
2023-03-16T18:04:23.377Z,5.26
2023-03-16T18:06:50.574Z,5.31
2023-03-16T18:09:18.183Z,5.34
2023-03-16T18:11:47.867Z,5.35
2023-03-16T18:14:39.240Z,5.35
2023-03-16T18:17:12.732Z,5.40
2023-03-16T18:19:39.693Z,5.40
2023-03-16T18:22:15.078Z,5.38
2023-03-16T18:24:42.443Z,5.48
2023-03-16T18:27:11.388Z,5.60
2023-03-16T18:29:38.659Z,5.66
2023-03-16T18:32:06.413Z,5.71
2023-03-16T18:34:35.530Z,5.71
2023-03-16T18:37:05.551Z,5.68
2023-03-16T18:39:34.061Z,5.69
2023-03-16T18:42:02.432Z,5.66
2023-03-16T18:44:29.886Z,5.63
2023-03-16T18:47:00.384Z,5.61
2023-03-16T18:49:35.014Z,5.62
2023-03-16T18:52:03.153Z,5.61
2023-03-16T18:54:31.825Z,5.60
2023-03-16T18:56:59.192Z,5.58
2023-03-16T18:59:26.771Z,5.58
2023-03-16T19:01:53.519Z,5.59
2023-03-16T19:04:25.224Z,5.58
2023-03-16T19:06:53.358Z,5.49
2023-03-16T19:09:27.221Z,5.50
2023-03-16T19:11:55.534Z,5.53
2023-03-16T19:14:27.582Z,5.49
2023-03-16T19:16:55.850Z,5.33
2023-03-16T19:19:23.739Z,5.27
2023-03-16T19:21:55.808Z,5.35
2023-03-16T19:24:30.610Z,5.44
2023-03-16T19:26:59.139Z,5.42
2023-03-16T19:29:31.330Z,5.38
2023-03-16T19:31:58.974Z,5.40
2023-03-16T19:34:26.615Z,5.39
2023-03-16T19:36:53.824Z,5.44
2023-03-16T19:39:20.891Z,5.39
2023-03-16T19:41:56.057Z,5.33
2023-03-16T19:44:24.720Z,5.22
2023-03-16T19:46:51.259Z,5.19
2023-03-16T19:49:19.641Z,5.14
2023-03-16T19:51:47.248Z,5.13
2023-03-16T19:54:19.710Z,5.14
2023-03-16T19:56:46.578Z,5.16
2023-03-16T19:59:14.870Z,5.22
2023-03-16T20:01:42.362Z,5.24
2023-03-16T20:04:14.232Z,5.18
2023-03-16T20:06:43.700Z,5.12
2023-03-16T20:09:10.985Z,4.99
2023-03-16T20:11:37.912Z,4.91
2023-03-16T20:14:28.434Z,4.91
2023-03-16T20:16:55.525Z,4.97
2023-03-16T20:19:22.603Z,5.02
2023-03-16T20:21:49.780Z,5.04
2023-03-16T20:24:20.169Z,5.05
2023-03-16T20:26:51.457Z,5.11
2023-03-16T20:29:28.478Z,5.15
2023-03-16T20:31:55.636Z,5.14
2023-03-16T20:34:25.106Z,5.15
2023-03-16T20:36:51.991Z,5.18
2023-03-16T20:39:18.784Z,5.21
2023-03-16T20:41:46.193Z,5.21
2023-03-16T20:44:14.613Z,5.17
2023-03-16T20:46:44.022Z,5.11
2023-03-16T20:49:24.514Z,5.08
2023-03-16T20:51:51.566Z,5.07
2023-03-16T20:54:18.521Z,5.07
2023-03-16T20:56:45.324Z,5.05
2023-03-16T20:59:22.272Z,5.00
2023-03-16T21:01:49.571Z,4.87
2023-03-16T21:04:26.374Z,4.85
2023-03-16T21:06:53.426Z,4.94
2023-03-16T21:09:20.583Z,5.02
2023-03-16T21:11:47.377Z,5.00
2023-03-16T21:14:21.431Z,5.01
2023-03-16T21:16:47.994Z,4.94
2023-03-16T21:19:20.330Z,4.90
2023-03-16T21:21:46.979Z,4.84
2023-03-16T21:24:19.619Z,4.78
2023-03-16T21:26:46.928Z,4.76
2023-03-16T21:29:15.845Z,4.80
2023-03-16T21:31:45.672Z,4.82
2023-03-16T21:34:23.637Z,4.73
2023-03-16T21:36:55.692Z,4.47
2023-03-16T21:39:24.394Z,4.41
2023-03-16T21:41:51.198Z,4.43
2023-03-16T21:44:19.230Z,4.50
2023-03-16T21:46:46.823Z,4.49
2023-03-16T21:49:19.214Z,4.38
2023-03-16T21:51:45.998Z,4.38
2023-03-16T21:54:16.284Z,4.38
2023-03-16T21:56:43.411Z,4.32
2023-03-16T21:59:10.612Z,4.28
2023-03-16T22:01:54.652Z,4.32
2023-03-16T22:04:27.415Z,4.28
2023-03-16T22:06:54.680Z,4.22
2023-03-16T22:09:24.215Z,4.18
2023-03-16T22:11:51.225Z,4.11
2023-03-16T22:14:17.868Z,4.09
2023-03-16T22:16:45.224Z,4.09
2023-03-16T22:19:13.865Z,4.16
2023-03-16T22:21:47.302Z,4.24
2023-03-16T22:24:20.405Z,4.29
2023-03-16T22:26:48.514Z,4.23
2023-03-16T22:29:23.615Z,4.25
2023-03-16T22:31:53.155Z,4.34
2023-03-16T22:34:47.678Z,4.36
2023-03-16T22:37:17.531Z,4.35
2023-03-16T22:39:44.652Z,4.35
2023-03-16T22:42:36.454Z,4.16
2023-03-16T22:45:21.132Z,4.07
2023-03-16T22:47:49.334Z,4.07
2023-03-16T22:50:17.303Z,4.07
2023-03-16T22:52:45.065Z,4.08
2023-03-16T22:55:17.759Z,4.10
2023-03-16T22:57:44.962Z,4.13
2023-03-16T23:00:13.567Z,4.16
2023-03-16T23:02:42.106Z,4.14
2023-03-16T23:05:23.976Z,4.13
2023-03-16T23:07:51.419Z,4.09
2023-03-16T23:10:22.928Z,4.11
2023-03-16T23:12:49.895Z,4.09
2023-03-16T23:15:23.268Z,4.11
2023-03-16T23:17:50.516Z,4.13
2023-03-16T23:20:24.480Z,4.16
2023-03-16T23:22:52.292Z,4.19
2023-03-16T23:25:21.719Z,4.20
2023-03-16T23:27:51.076Z,4.22
2023-03-16T23:30:23.452Z,4.25
2023-03-16T23:32:53.601Z,4.25
2023-03-16T23:35:22.899Z,4.29
2023-03-16T23:37:51.808Z,4.30
2023-03-16T23:40:20.994Z,4.25
2023-03-16T23:42:48.039Z,4.26
2023-03-16T23:45:33.273Z,4.28
2023-03-16T23:48:02.130Z,4.28
2023-03-16T23:50:33.664Z,4.25
2023-03-16T23:53:01.430Z,4.24
2023-03-16T23:55:34.236Z,4.16
2023-03-16T23:58:01.352Z,4.05
